Time;durP1;ratioP1;P1;durP2;ratioP2;P2;SDS_P1;SDS_P2;PMS_P1;PMS_P2;Temp;Humidity;BMP_temperature;BMP_pressure;BME280_temperature;BME280_humidity;BME280_pressure;Samples;Min_cycle;Max_cycle;Signal;HPM_P1;HPM_P2
2021/04/08 01:40:05;;;;;;;23.60;8.27;;;0.00;99.90;;;-143.32;100.00;52249.34;6102073;23;20382;31
2021/04/08 01:42:33;;;;;;;16.90;7.83;;;0.00;99.90;;;-143.32;100.00;52267.53;4955587;28;20448;-89
2021/04/08 01:45:04;;;;;;;24.63;8.00;;;-0.10;99.90;;;-143.32;100.00;52247.34;4957256;28;20496;-88
2021/04/08 01:47:32;;;;;;;19.17;8.13;;;0.00;99.90;;;-143.32;100.00;52196.84;4956994;28;20804;-88
2021/04/08 01:50:04;;;;;;;28.40;9.00;;;0.00;99.90;;;-143.32;100.00;52196.84;4956836;28;20594;-89
2021/04/08 01:52:32;;;;;;;22.40;8.53;;;0.00;99.90;;;-143.32;100.00;52186.75;4957283;28;20516;-89
2021/04/08 01:55:03;;;;;;;19.33;8.40;;;-0.10;99.90;;;-143.32;100.00;52168.59;4956794;29;20856;-88
2021/04/08 01:57:33;;;;;;;19.27;9.03;;;-0.10;99.90;;;-143.32;100.00;52136.28;4956644;28;20437;-89
2021/04/08 02:00:03;;;;;;;22.23;8.70;;;-0.10;99.90;;;-143.32;100.00;52126.19;4957345;29;20449;-87
2021/04/08 02:02:34;;;;;;;21.57;8.30;;;-0.10;99.90;;;-143.32;100.00;52099.94;4956204;28;20837;-90
2021/04/08 02:05:01;;;;;;;20.37;8.90;;;-0.10;99.90;;;-143.32;100.00;52087.84;4956436;28;20959;-88
2021/04/08 02:07:31;;;;;;;22.13;9.10;;;-0.10;99.90;;;-143.32;100.00;52055.53;4956412;29;21000;-89
2021/04/08 02:10:03;;;;;;;21.77;8.30;;;-0.10;99.90;;;-143.32;100.00;52039.38;4956538;29;20456;-88
2021/04/08 02:12:34;;;;;;;27.17;8.50;;;0.00;99.90;;;-143.32;100.00;52035.34;4957189;28;20444;-89
2021/04/08 02:15:02;;;;;;;26.90;9.70;;;0.00;99.90;;;-143.32;100.00;52033.31;4956766;28;20508;-90
2021/04/08 02:17:32;;;;;;;37.57;10.40;;;-0.10;99.90;;;-143.32;100.00;52043.41;4955954;29;20456;-89
2021/04/08 02:19:59;;;;;;;23.00;9.97;;;0.00;99.90;;;-143.32;100.00;52001.03;4956390;28;20445;-87
2021/04/08 02:22:26;;;;;;;25.70;10.47;;;0.00;99.90;;;-143.32;100.00;51986.88;4956427;28;20453;-89
2021/04/08 02:24:54;;;;;;;16.10;8.63;;;0.00;99.90;;;-143.32;100.00;51999.00;4956184;29;20790;-89
2021/04/08 02:27:22;;;;;;;21.07;10.00;;;0.00;99.90;;;-143.32;100.00;51986.88;4956055;29;20445;-89
2021/04/08 02:29:52;;;;;;;25.10;9.17;;;-0.10;99.90;;;-143.32;100.00;51964.69;4956297;28;20480;-87
2021/04/08 02:32:19;;;;;;;17.83;8.70;;;-0.10;99.90;;;-143.32;100.00;51982.84;4956074;28;20444;-88
2021/04/08 02:34:46;;;;;;;23.50;9.30;;;-0.10;99.90;;;-143.32;100.00;51964.69;4955922;29;20488;-88
2021/04/08 02:37:13;;;;;;;24.70;9.23;;;-0.10;99.90;;;-143.32;100.00;51938.44;4955772;28;20500;-89
2021/04/08 02:39:40;;;;;;;22.07;8.70;;;0.00;99.90;;;-143.32;100.00;51942.47;4955514;28;20450;-88
2021/04/08 02:42:07;;;;;;;25.50;9.50;;;-0.20;99.90;;;-143.32;100.00;51924.31;4956439;29;20469;-88
2021/04/08 02:44:35;;;;;;;30.23;8.43;;;-0.10;99.90;;;-143.32;100.00;51887.97;4955536;28;20445;-90
2021/04/08 02:47:02;;;;;;;19.67;8.63;;;0.00;99.90;;;-143.32;100.00;51898.06;4955541;28;20939;-88
2021/04/08 02:49:29;;;;;;;29.87;9.20;;;-0.10;99.90;;;-143.32;100.00;51855.66;4955819;29;20442;-87
2021/04/08 02:52:01;;;;;;;19.40;8.50;;;-0.10;99.90;;;-143.32;100.00;51813.28;4955832;28;20457;-89
2021/04/08 02:54:37;;;;;;;20.90;8.93;;;-0.10;99.90;;;-143.32;100.00;51793.09;4955962;28;20516;-88
2021/04/08 02:57:06;;;;;;;19.30;8.77;;;-0.10;99.90;;;-143.32;100.00;51803.19;4955401;28;20429;-88
2021/04/08 02:59:43;;;;;;;30.10;9.50;;;-0.10;99.90;;;-143.32;100.00;51762.81;4955633;28;20452;-87
2021/04/08 03:02:13;;;;;;;19.13;8.90;;;-0.10;99.90;;;-143.32;100.00;51758.75;4955429;28;20561;-88
2021/04/08 03:04:47;;;;;;;26.70;9.37;;;-0.20;99.90;;;-143.32;100.00;51524.59;4955821;29;20457;-87
2021/04/08 03:07:19;;;;;;;23.03;8.63;;;-0.10;99.90;;;-143.32;100.00;51413.56;4956319;29;20750;-90
2021/04/08 03:09:47;;;;;;;24.23;8.63;;;-0.20;99.90;;;-143.32;100.00;51377.25;4955578;29;20441;-89
2021/04/08 03:12:16;;;;;;;23.50;9.73;;;-0.10;99.90;;;-143.32;100.00;51336.88;4955231;29;20445;-88
2021/04/08 03:14:47;;;;;;;23.10;9.60;;;-0.10;99.90;;;-143.32;100.00;51278.34;4955458;29;20496;-88
2021/04/08 03:17:19;;;;;;;28.93;9.27;;;-0.10;99.90;;;-143.32;100.00;51300.53;4955645;29;20461;-88
2021/04/08 03:19:46;;;;;;;30.33;8.90;;;-0.10;99.90;;;-143.32;100.00;51278.34;4955991;28;20512;-88
2021/04/08 03:22:14;;;;;;;28.37;9.10;;;-0.20;99.90;;;-143.32;100.00;51248.06;4955475;28;20457;-88
2021/04/08 03:24:42;;;;;;;17.90;8.57;;;-0.10;99.90;;;-143.32;100.00;51223.84;4955108;28;20453;-88
2021/04/08 03:27:10;;;;;;;31.43;9.50;;;-0.10;99.90;;;-143.32;100.00;51221.81;4955724;28;20916;-87
2021/04/08 03:29:40;;;;;;;26.30;9.00;;;-0.10;99.90;;;-143.32;100.00;51181.44;4955239;28;20468;-88
2021/04/08 03:32:09;;;;;;;16.50;8.80;;;-0.20;99.90;;;-143.32;100.00;51145.13;4955642;28;20437;-88
2021/04/08 03:34:38;;;;;;;26.07;8.73;;;-0.20;99.90;;;-143.32;100.00;51145.13;4955178;28;20543;-89
2021/04/08 03:37:05;;;;;;;25.97;9.17;;;-0.20;99.90;;;-143.32;100.00;51151.19;4955952;29;20452;-89
2021/04/08 03:39:32;;;;;;;23.03;8.23;;;-0.20;99.90;;;-143.32;100.00;51177.41;4954959;29;20473;-87
2021/04/08 03:41:59;;;;;;;22.83;7.80;;;-0.20;99.90;;;-143.32;100.00;51135.03;4955726;29;20981;-88
2021/04/08 03:44:29;;;;;;;25.13;9.17;;;-0.20;99.90;;;-143.32;100.00;51124.94;4956038;29;20772;-88
2021/04/08 03:46:59;;;;;;;18.33;6.97;;;-0.30;99.90;;;-143.32;100.00;51074.47;4955367;29;20465;-87
2021/04/08 03:49:29;;;;;;;16.90;7.80;;;-0.20;99.90;;;-143.32;100.00;51088.59;4955121;29;20456;-88
2021/04/08 08:37:26;;;;;;;9.40;3.40;;;7.30;99.90;;;-143.32;74.38;54460.91;5003026;28;20426;-91
2021/04/08 08:40:01;;;;;;;14.90;4.20;;;7.40;93.20;;;-143.32;75.29;54444.75;4998258;28;20411;-90
2021/04/08 08:42:30;;;;;;;17.30;4.23;;;7.40;96.60;;;-143.32;75.54;54440.72;5020788;28;20492;-90
2021/04/08 08:45:15;;;;;;;;;;;;;;;;;;;;;
2021/04/08 08:48:17;;;;;;;;;;;;;;;;;;;;;
2021/04/08 08:50:57;;;;;;;13.13;4.10;;;7.50;95.30;;;-143.32;74.61;54509.41;5043774;28;20436;-94
2021/04/08 09:07:59;;;;;;;31.43;4.20;;;8.90;28.10;;;-143.32;63.20;54778.13;5295566;23;20489;-92
2021/04/08 10:08:12;;;;;;;11.70;3.87;;;7.30;1.00;;;-143.32;49.32;55202.47;5002280;28;20485;-92
2021/04/08 10:10:45;;;;;;;20.00;3.97;;;7.20;1.00;;;-143.32;50.20;55206.50;5026437;28;20439;-92
2021/04/08 10:13:34;;;;;;;10.00;3.20;;;7.40;2.10;;;-143.32;45.76;55218.63;5025250;28;20480;-90
2021/04/08 10:16:09;;;;;;;10.97;3.30;;;7.60;1.00;;;-143.32;46.32;55238.84;5024226;28;20489;-91
2021/04/08 10:18:46;;;;;;;8.73;2.60;;;7.60;1.00;;;-143.32;44.20;55267.13;5024551;28;20465;-92
2021/04/08 10:21:19;;;;;;;10.20;3.13;;;7.70;1.00;;;-143.32;42.58;55303.50;5023347;28;20461;-92
2021/04/08 10:23:51;;;;;;;14.00;3.87;;;7.80;1.00;;;-143.32;46.00;55289.38;5018664;28;20504;-91
2021/04/08 10:26:21;;;;;;;12.40;2.97;;;7.70;1.00;;;-143.32;50.25;55267.13;5017467;28;20524;-91
2021/04/08 10:28:50;;;;;;;7.53;3.53;;;7.60;1.00;;;-143.32;48.07;55263.09;5017423;28;20426;-91
2021/04/08 10:31:19;;;;;;;7.70;3.53;;;7.70;1.00;;;-143.32;47.62;55291.38;5015727;28;20457;-92
2021/04/08 10:33:46;;;;;;;8.83;3.20;;;7.70;1.00;;;-143.32;47.48;55273.19;5015408;28;20940;-90
2021/04/08 10:36:32;;;;;;;9.50;3.20;;;7.70;1.00;;;-143.32;48.79;55240.88;5016185;28;20769;-93
2021/04/08 10:39:28;;;;;;;15.17;4.30;;;7.80;1.00;;;-143.32;49.00;55253.00;5017866;28;20569;-92
2021/04/08 10:42:02;;;;;;;15.30;4.07;;;7.70;1.00;;;-143.32;49.10;55293.41;5014806;28;21006;-94
2021/04/08 10:44:32;;;;;;;15.37;4.40;;;7.70;1.00;;;-143.32;48.98;55261.06;5019012;28;20512;-94
2021/04/08 10:47:03;;;;;;;16.17;4.40;;;7.50;1.00;;;-143.32;51.71;55293.41;5021733;28;20452;-92
2021/04/08 10:49:32;;;;;;;8.47;3.93;;;7.60;2.50;;;-143.32;48.41;55295.44;5019616;28;20782;-92
2021/04/08 10:52:05;;;;;;;16.03;4.00;;;7.60;1.00;;;-143.32;49.36;55311.59;5003948;28;20467;-91
2021/04/08 10:54:34;;;;;;;15.73;4.80;;;7.60;1.00;;;-143.32;49.44;55295.44;4996309;28;20443;-92
2021/04/08 10:57:02;;;;;;;10.70;4.00;;;7.70;1.00;;;-143.32;49.92;55261.06;4996165;28;20778;-92
2021/04/08 10:59:31;;;;;;;6.43;4.03;;;7.80;1.50;;;-143.32;47.47;55301.50;4996193;28;20462;-93
2021/04/08 11:01:59;;;;;;;20.57;4.20;;;7.90;1.00;;;-143.32;47.65;55309.56;4995451;28;20482;-93
2021/04/08 11:04:26;;;;;;;9.10;3.87;;;7.70;1.00;;;-143.32;47.44;55275.22;4995273;28;20818;-93
2021/04/08 11:06:57;;;;;;;7.23;3.93;;;7.80;1.00;;;-143.32;45.15;55323.72;4995745;28;20466;-92
2021/04/08 11:09:29;;;;;;;12.67;4.60;;;7.90;1.00;;;-143.32;46.10;55299.47;4995959;28;20431;-92
2021/04/08 11:11:57;;;;;;;11.77;3.97;;;7.90;1.00;;;-143.32;46.26;55331.81;4995472;28;20430;-92
2021/04/08 11:14:30;;;;;;;10.43;3.90;;;8.00;1.00;;;-143.32;47.97;55299.47;4995633;28;20440;-91
2021/04/08 11:17:02;;;;;;;13.07;4.07;;;7.90;1.00;;;-143.32;47.01;55311.59;4995943;28;20451;-93
2021/04/08 11:19:28;;;;;;;21.13;4.70;;;7.90;1.00;;;-143.32;44.26;55331.81;4995686;28;20451;-92
2021/04/08 11:21:56;;;;;;;12.70;4.20;;;7.90;1.00;;;-143.32;43.86;55368.19;4995091;28;20483;-91
2021/04/08 11:24:24;;;;;;;11.40;4.20;;;7.80;1.00;;;-143.32;44.53;55364.13;4995366;28;20455;-93
2021/04/08 11:26:53;;;;;;;8.03;3.73;;;7.70;1.00;;;-143.32;44.37;55347.97;4995472;28;20443;-92
2021/04/08 11:29:25;;;;;;;7.10;3.33;;;7.90;1.00;;;-143.32;43.99;55356.06;4995038;28;20489;-92
2021/04/08 11:42:42;;;;;;;5.47;3.00;;;8.20;1.00;;;-143.32;42.00;55434.88;4910003;23;20496;-93
2021/04/08 11:46:24;;;;;;;13.73;4.10;;;8.20;1.00;;;-143.32;41.50;55382.31;5030542;28;20457;-93
2021/04/08 11:48:51;;;;;;;7.83;4.13;;;8.00;1.00;;;-143.32;42.54;55420.72;4978923;28;20460;-93
2021/04/08 11:51:27;;;;;;;13.20;3.87;;;8.00;1.00;;;-143.32;42.86;55440.94;4980356;28;20488;-92
2021/04/08 11:54:20;;;;;;;9.50;4.13;;;7.70;1.00;;;-143.32;43.45;55420.72;5020852;28;20461;-91
2021/04/08 11:56:48;;;;;;;24.93;8.47;;;7.60;1.00;;;-143.32;44.40;55388.38;5023993;28;20442;-92
2021/04/08 11:59:27;;;;;;;6.20;4.20;;;7.80;1.00;;;-143.32;42.62;55384.34;5019597;28;20434;-91
2021/04/08 12:02:32;;;;;;;13.73;5.77;;;7.90;1.00;;;-143.32;42.61;55394.44;5020149;28;20493;-91
2021/04/08 12:16:27;;;;;;;7.77;4.37;;;8.10;1.00;;;-143.32;41.71;55414.66;5005665;28;20521;-93
2021/04/08 12:22:35;;;;;;;12.60;5.10;;;8.40;1.00;;;-143.32;39.54;55416.69;5018657;28;20469;-92
2021/04/08 12:25:11;;;;;;;8.00;4.83;;;8.70;1.00;;;-143.32;38.93;55394.44;5015500;28;20585;-92
2021/04/08 12:27:39;;;;;;;7.83;5.03;;;8.70;1.00;;;-143.32;39.91;55426.78;5015460;28;20474;-91
2021/04/08 12:30:08;;;;;;;7.27;4.60;;;8.80;1.00;;;-143.32;37.43;55473.28;5020836;28;20460;-92
2021/04/08 12:32:36;;;;;;;13.23;5.10;;;8.70;1.00;;;-143.32;40.24;55388.38;5021436;28;20445;-93
2021/04/08 12:38:45;;;;;;;12.60;6.50;;;8.80;1.00;;;-143.32;40.01;55430.81;5019063;28;20842;-93
2021/04/08 12:41:16;;;;;;;9.27;4.60;;;8.80;1.00;;;-143.32;39.23;55442.94;5018662;28;20561;-93
2021/04/08 12:43:42;;;;;;;11.80;5.80;;;8.70;1.00;;;-143.32;39.82;55475.28;5024592;28;20478;-91
2021/04/08 12:46:13;;;;;;;14.97;6.00;;;8.70;1.00;;;-143.32;39.94;55440.94;5022034;28;20450;-92
2021/04/08 12:48:40;;;;;;;14.47;5.33;;;8.70;1.00;;;-143.32;40.34;55444.97;5019607;28;20517;-93
2021/04/08 12:51:13;;;;;;;11.10;5.43;;;8.80;1.00;;;-143.32;40.12;55444.97;5019333;28;20828;-91
2021/04/08 12:53:43;;;;;;;9.20;5.10;;;8.80;1.00;;;-143.32;40.13;55457.09;5017635;28;20908;-89
2021/04/08 12:56:10;;;;;;;9.77;5.20;;;8.80;1.00;;;-143.32;40.33;55436.88;5017422;28;20476;-89
2021/04/08 12:58:36;;;;;;;13.67;4.77;;;8.80;1.00;;;-143.32;38.42;55483.38;5017687;28;20445;-93
2021/04/08 13:01:03;;;;;;;18.30;5.10;;;8.90;1.00;;;-143.32;38.39;55517.72;5018062;28;20453;-91
2021/04/08 13:03:30;;;;;;;14.43;6.50;;;9.10;1.00;;;-143.32;38.57;55473.28;5020346;28;20493;-90
2021/04/08 13:05:57;;;;;;;11.50;4.73;;;9.10;1.00;;;-143.32;37.89;55507.63;5019492;28;20809;-93
2021/04/08 13:08:24;;;;;;;9.67;5.20;;;9.00;1.00;;;-143.32;38.77;55467.22;5022106;28;20434;-92
2021/04/08 13:10:52;;;;;;;9.90;5.37;;;8.80;1.00;;;-143.32;38.96;55497.53;5025620;28;20519;-93
2021/04/08 13:13:36;;;;;;;10.60;5.10;;;8.80;1.00;;;-143.32;38.37;55529.84;5027959;28;20545;-94
2021/04/08 13:16:05;;;;;;;9.53;4.63;;;8.80;1.00;;;-143.32;37.85;55505.59;5025197;28;20897;-93
2021/04/08 13:18:41;;;;;;;8.37;5.10;;;8.90;1.00;;;-143.32;37.84;55531.88;5025269;28;20435;-95
2021/04/08 13:21:09;;;;;;;10.13;5.93;;;8.70;1.00;;;-143.32;39.56;55515.72;5023408;28;20528;-93
2021/04/08 13:23:36;;;;;;;13.83;5.50;;;8.90;1.00;;;-143.32;40.70;55489.44;5018187;28;20434;-87
2021/04/08 13:26:27;;;;;;;12.03;6.10;;;8.90;1.00;;;-143.32;38.92;55519.75;5017039;28;20470;-93
2021/04/08 13:28:54;;;;;;;9.23;5.40;;;9.10;1.00;;;-143.32;38.96;55499.53;5010351;28;20481;-91
2021/04/08 13:31:21;;;;;;;18.83;6.00;;;9.10;1.00;;;-143.32;40.30;55489.44;5019504;28;20450;-92
2021/04/08 13:34:27;;;;;;;;;;;;;;;;;;;;;
2021/04/08 13:37:02;;;;;;;14.93;5.50;;;9.20;1.00;;;-143.32;38.10;55552.09;5032772;28;20466;-94
2021/04/08 13:39:32;;;;;;;17.17;5.30;;;9.00;1.00;;;-143.32;39.08;55511.66;5030646;28;20440;-93
2021/04/08 13:45:48;;;;;;;10.73;6.20;;;9.00;1.00;;;-143.32;38.48;55525.81;5027402;28;20484;-93
2021/04/08 14:14:34;;;;;;;11.63;6.40;;;8.90;1.00;;;-143.32;39.47;55533.91;4937097;28;20449;-93
2021/04/08 14:20:26;;;;;;;13.33;6.87;;;9.00;1.00;;;-143.32;39.18;55556.13;5182586;23;20476;-92
2021/04/08 14:25:49;;;;;;;22.27;7.63;;;9.20;1.00;;;-143.32;39.35;55531.88;4983794;28;20471;-91
2021/04/08 14:28:26;;;;;;;12.83;7.87;;;9.30;1.00;;;-143.32;38.17;55521.78;4980815;28;20444;-93
2021/04/08 14:46:41;;;;;;;15.43;7.67;;;8.90;1.00;;;-143.32;38.91;55568.25;4979260;28;20456;-93
2021/04/08 14:49:47;;;;;;;13.13;7.90;;;9.00;1.00;;;-143.32;39.48;55572.28;4980443;28;20503;-92
2021/04/08 14:52:30;;;;;;;14.23;7.63;;;8.80;1.00;;;-143.32;40.59;55570.28;4981553;28;20446;-92
2021/04/08 15:01:46;;;;;;;12.50;8.30;;;8.50;1.00;;;-143.32;41.29;55602.59;4981333;28;20463;-88
2021/04/08 15:04:13;;;;;;;16.03;8.57;;;8.50;1.00;;;-143.32;42.32;55576.34;4975906;28;20506;-89
2021/04/08 15:06:40;;;;;;;11.87;8.70;;;8.50;1.00;;;-143.32;41.99;55558.16;4975417;28;20451;-91
2021/04/08 15:09:08;;;;;;;13.33;9.87;;;8.60;1.00;;;-143.32;40.21;55544.00;4975604;28;20475;-90
2021/04/08 15:11:35;;;;;;;12.37;9.33;;;8.70;1.00;;;-143.32;40.57;55566.22;4975465;28;20463;-92
2021/04/08 15:14:02;;;;;;;17.30;9.50;;;8.80;1.00;;;-143.32;41.43;55554.09;4976187;28;20851;-91
2021/04/08 15:16:29;;;;;;;14.87;9.60;;;8.80;1.00;;;-143.32;40.88;55596.56;4975917;28;20448;-89
2021/04/08 15:18:56;;;;;;;13.07;9.23;;;8.90;1.00;;;-143.32;41.75;55535.91;4975343;28;20463;-91
2021/04/08 15:21:22;;;;;;;16.15;9.70;;;8.70;1.00;;;-143.32;40.83;55576.34;4975211;28;20480;-89
2021/04/08 15:23:49;;;;;;;13.30;8.30;;;8.80;1.00;;;-143.32;40.85;55574.31;4975320;28;20503;-91
2021/04/08 15:26:17;;;;;;;14.33;9.60;;;8.80;1.00;;;-143.32;40.78;55580.38;4974866;28;20452;-89
2021/04/08 15:28:44;;;;;;;15.07;9.97;;;8.70;1.00;;;-143.32;40.08;55600.59;4976103;28;20855;-91
2021/04/08 15:31:11;;;;;;;13.30;9.10;;;8.80;1.00;;;-143.32;40.10;55580.38;4975309;28;20479;-89
2021/04/08 15:33:37;;;;;;;15.50;8.97;;;8.80;1.00;;;-143.32;40.95;55568.25;4974636;28;20467;-90
2021/04/08 15:36:07;;;;;;;20.30;10.07;;;8.70;1.00;;;-143.32;41.05;55550.06;4975414;28;20825;-91
2021/04/08 15:38:34;;;;;;;17.33;10.57;;;8.70;1.00;;;-143.32;42.64;55537.94;4974779;28;20996;-88
2021/04/08 15:41:01;;;;;;;13.50;9.37;;;8.80;1.00;;;-143.32;40.97;55580.38;4975204;28;20539;-88
2021/04/08 15:43:31;;;;;;;13.03;8.47;;;8.80;1.00;;;-143.32;41.22;55586.44;4974958;28;20488;-88
2021/04/08 15:45:57;;;;;;;21.40;9.43;;;8.70;1.00;;;-143.32;41.89;55570.28;4976172;28;20440;-89
2021/04/08 15:48:24;;;;;;;15.43;9.50;;;8.60;1.00;;;-143.32;42.33;55584.41;4975062;28;20447;-90
2021/04/08 15:50:51;;;;;;;16.90;9.63;;;8.60;1.00;;;-143.32;42.27;55535.91;4974899;28;20458;-88
2021/04/08 15:54:19;;;;;;;12.60;9.00;;;8.70;1.00;;;-143.32;42.34;55582.41;4974819;28;20451;-90
2021/04/08 15:56:46;;;;;;;12.10;7.53;;;8.70;1.00;;;-143.32;41.50;55572.28;4974712;28;20436;-87
2021/04/08 15:59:14;;;;;;;24.00;9.40;;;8.70;1.00;;;-143.32;43.35;55552.09;4974397;28;20456;-89
2021/04/08 16:01:41;;;;;;;14.40;9.07;;;8.60;1.00;;;-143.32;41.39;55588.47;4973980;28;20448;-90
2021/04/08 16:04:09;;;;;;;12.20;9.03;;;8.60;1.00;;;-143.32;43.53;55566.22;4977144;28;20440;-87
2021/04/08 16:06:38;;;;;;;15.07;8.53;;;8.50;1.00;;;-143.32;43.05;55608.69;4978255;28;20462;-89
2021/04/08 16:09:05;;;;;;;14.47;8.27;;;8.50;1.00;;;-143.32;42.50;55535.91;4978354;28;20460;-88
2021/04/08 16:11:32;;;;;;;14.90;8.67;;;8.60;1.00;;;-143.32;43.14;55582.41;4978658;28;20796;-90
2021/04/08 16:13:59;;;;;;;15.50;8.30;;;8.60;1.00;;;-143.32;42.88;55590.47;4978645;28;20443;-89
2021/04/08 16:16:29;;;;;;;17.13;9.63;;;8.60;1.00;;;-143.32;43.25;55564.22;4978539;28;20447;-91
2021/04/08 16:18:55;;;;;;;14.00;8.97;;;8.50;1.00;;;-143.32;42.40;55598.56;4978227;28;20475;-90
2021/04/08 16:21:23;;;;;;;19.70;9.13;;;8.60;1.00;;;-143.32;43.10;55596.56;4978454;28;20459;-90
2021/04/08 16:23:52;;;;;;;14.70;8.97;;;8.50;1.00;;;-143.32;43.20;55576.34;4979419;28;20475;-92
2021/04/08 16:26:44;;;;;;;14.90;9.70;;;8.40;1.00;;;-143.32;43.90;55544.00;4979677;28;20455;-95
2021/04/08 16:39:46;;;;;;;25.30;9.20;;;8.20;1.00;;;-143.32;44.76;55586.44;4981504;28;20448;-93
2021/04/08 16:42:58;;;;;;;17.57;9.57;;;8.30;1.00;;;-143.32;45.06;55572.28;4912143;29;20494;-93
2021/04/08 16:50:05;;;;;;;;;;;;;;;;;;;;;
2021/04/08 16:53:09;;;;;;;21.53;9.80;;;8.30;1.00;;;-143.32;44.38;55606.66;4986513;28;20457;-93
2021/04/08 16:55:40;;;;;;;16.03;8.83;;;8.30;1.00;;;-143.32;44.05;55592.50;4991509;28;20440;-93
2021/04/08 16:58:19;;;;;;;17.43;10.30;;;8.30;1.00;;;-143.32;44.67;55594.53;4989296;28;20471;-93
2021/04/08 17:00:57;;;;;;;14.77;9.40;;;8.20;1.00;;;-143.32;43.77;55606.66;4983734;28;20476;-93
2021/04/08 17:03:24;;;;;;;15.23;10.00;;;8.10;1.00;;;-143.32;43.52;55618.78;4981426;28;20545;-93
2021/04/08 17:05:54;;;;;;;23.23;9.70;;;8.10;1.00;;;-143.32;43.94;55602.59;4980833;28;20449;-91
2021/04/08 17:08:22;;;;;;;14.93;9.57;;;8.10;1.00;;;-143.32;44.20;55594.53;4979878;28;20535;-92
2021/04/08 17:10:49;;;;;;;11.83;10.30;;;8.10;1.00;;;-143.32;44.72;55590.47;4980252;28;20455;-92
2021/04/08 17:13:24;;;;;;;17.93;9.70;;;8.00;1.00;;;-143.32;44.03;55639.00;4982842;28;20962;-94
2021/04/08 17:15:55;;;;;;;19.90;10.43;;;7.90;1.00;;;-143.32;45.78;55608.69;4984540;28;20447;-93
2021/04/08 17:18:24;;;;;;;19.33;9.97;;;7.80;1.00;;;-143.32;45.00;55641.00;4982198;28;20474;-93
2021/04/08 17:20:51;;;;;;;19.30;9.63;;;7.80;1.00;;;-143.32;45.77;55608.69;5255536;23;20609;-92
2021/04/08 17:23:17;;;;;;;18.60;9.83;;;7.70;1.00;;;-143.32;46.34;55616.75;5000473;28;20573;-94
2021/04/08 17:25:45;;;;;;;21.13;9.37;;;7.60;1.00;;;-143.32;47.74;55604.63;4999723;28;20455;-91
2021/04/08 17:28:14;;;;;;;12.50;8.40;;;7.50;1.00;;;-143.32;47.08;55622.81;5001177;28;20447;-93
2021/04/08 17:30:44;;;;;;;18.37;10.47;;;7.40;1.00;;;-143.32;46.90;55649.09;4999811;28;20521;-92
2021/04/08 17:33:11;;;;;;;27.70;9.63;;;7.30;1.00;;;-143.32;48.45;55620.81;5003456;28;20450;-92
2021/04/08 17:35:41;;;;;;;16.37;9.57;;;7.30;1.00;;;-143.32;48.48;55616.75;5008215;28;20465;-93
2021/04/08 17:38:10;;;;;;;14.47;9.57;;;7.30;1.00;;;-143.32;48.02;55620.81;5011190;28;20447;-92
2021/04/08 17:40:39;;;;;;;15.83;9.40;;;7.40;1.00;;;-143.32;48.55;55632.94;5017743;28;20422;-93
2021/04/08 17:43:07;;;;;;;16.17;10.27;;;7.20;1.00;;;-143.32;48.57;55624.84;5019023;28;20558;-93
2021/04/08 17:45:44;;;;;;;16.70;9.97;;;7.10;1.00;;;-143.32;49.37;55659.19;5019320;28;20447;-93
2021/04/08 17:48:15;;;;;;;19.17;10.73;;;7.00;1.00;;;-143.32;49.95;55608.69;5012125;28;20466;-92
2021/04/08 17:50:41;;;;;;;16.67;10.43;;;7.00;1.00;;;-143.32;49.58;55614.75;5003231;28;20507;-92
2021/04/08 17:53:08;;;;;;;16.53;10.23;;;7.00;1.00;;;-143.32;50.12;55616.75;4996786;28;20451;-90
2021/04/08 17:55:35;;;;;;;23.63;10.83;;;7.00;1.00;;;-143.32;50.06;55632.94;4996625;28;20449;-92
2021/04/08 17:58:10;;;;;;;24.00;10.97;;;7.00;1.00;;;-143.32;50.83;55630.91;4996649;28;20446;-90
2021/04/08 18:00:38;;;;;;;15.97;9.90;;;7.00;1.10;;;-143.32;51.10;55645.06;4996427;28;20454;-90
2021/04/08 18:03:10;;;;;;;17.93;10.90;;;6.90;2.40;;;-143.32;51.73;55636.97;4996667;28;20495;-91
2021/04/08 18:05:37;;;;;;;21.57;11.73;;;6.80;3.90;;;-143.32;51.85;55612.72;4996395;28;20478;-90
2021/04/08 18:08:05;;;;;;;16.40;11.30;;;6.80;4.70;;;-143.32;53.22;55626.88;4996319;28;20451;-91
2021/04/08 18:10:32;;;;;;;19.57;10.00;;;6.70;7.50;;;-143.32;53.59;55630.91;4996634;28;20443;-91
2021/04/08 18:13:01;;;;;;;17.80;11.10;;;6.70;9.60;;;-143.32;53.64;55647.06;4996178;28;20447;-90
2021/04/08 18:15:32;;;;;;;15.30;10.93;;;6.60;10.80;;;-143.32;54.50;55649.09;4996202;28;20451;-93
2021/04/08 18:17:59;;;;;;;18.93;11.40;;;6.50;12.10;;;-143.32;53.95;55641.00;4996815;28;20525;-91
2021/04/08 18:20:26;;;;;;;17.97;10.37;;;6.50;13.90;;;-143.32;54.01;55665.25;4996101;28;20522;-93
2021/04/08 18:22:54;;;;;;;19.90;10.97;;;6.50;13.90;;;-143.32;54.08;55647.06;4995924;28;20494;-92
2021/04/08 18:25:21;;;;;;;22.00;10.27;;;6.40;14.70;;;-143.32;54.28;55639.00;4995525;28;20451;-91
2021/04/08 18:27:52;;;;;;;22.23;10.90;;;6.40;15.90;;;-143.32;54.75;55649.09;4995518;28;20537;-90
2021/04/08 18:30:25;;;;;;;23.33;11.10;;;6.40;17.70;;;-143.32;55.02;55626.88;4996238;28;20443;-92
2021/04/08 18:32:55;;;;;;;20.00;11.50;;;6.40;18.50;;;-143.32;55.54;55651.13;4995469;28;20454;-91
2021/04/08 18:41:42;;;;;;;18.77;10.70;;;6.20;25.80;;;-143.32;57.61;55628.88;5562761;23;20478;-91
2021/04/08 18:44:21;;;;;;;21.83;10.53;;;6.10;31.70;;;-143.32;57.34;55614.75;5015232;28;20442;-93
2021/04/08 19:05:59;;;;;;;23.70;12.73;;;5.80;53.00;;;-143.32;60.27;55661.22;5766215;23;20495;-93
2021/04/08 19:08:30;;;;;;;29.80;12.10;;;5.80;56.00;;;-143.32;59.61;55669.31;5033182;28;20565;-93
2021/04/08 19:17:57;;;;;;;23.50;11.87;;;5.50;68.00;;;-143.32;61.95;55626.88;5031636;28;20418;-92
2021/04/08 19:28:46;;;;;;;23.83;13.27;;;5.50;76.10;;;-143.32;62.52;55634.94;4993055;28;20448;-93
2021/04/08 19:31:28;;;;;;;20.63;13.00;;;5.50;79.50;;;-143.32;63.28;55661.22;4974300;28;20452;-93
2021/04/08 19:58:47;;;;;;;;;;;;;;;;;;;;;
2021/04/08 20:01:44;;;;;;;19.30;11.60;;;5.00;94.40;;;-143.32;66.89;55628.88;4934487;29;20473;-93
2021/04/08 20:18:39;;;;;;;22.00;12.43;;;4.90;98.40;;;-143.32;68.65;55620.81;4998186;28;20426;-92
2021/04/08 20:21:06;;;;;;;27.43;12.20;;;4.80;99.90;;;-143.32;68.63;55616.75;4994621;28;20442;-92
2021/04/08 20:23:33;;;;;;;19.50;11.70;;;4.80;99.90;;;-143.32;68.89;55602.59;5014469;28;20525;-93
2021/04/08 20:26:00;;;;;;;26.27;12.80;;;4.70;99.90;;;-143.32;69.37;55626.88;5014254;28;20801;-93
2021/04/08 20:28:32;;;;;;;18.93;12.60;;;4.70;99.90;;;-143.32;69.85;55677.38;5015684;28;20450;-93
2021/04/08 20:31:03;;;;;;;25.80;12.00;;;4.60;99.90;;;-143.32;70.18;55653.13;5014625;28;20466;-93
2021/04/08 20:33:32;;;;;;;24.13;13.10;;;4.60;99.90;;;-143.32;70.42;55645.06;5013679;28;20521;-94
2021/04/08 20:36:03;;;;;;;21.80;13.33;;;4.60;99.90;;;-143.32;70.93;55649.09;5014113;28;20446;-92
2021/04/08 20:38:33;;;;;;;22.93;13.10;;;4.60;99.90;;;-143.32;70.66;55661.22;5014295;28;20431;-93
2021/04/08 20:41:04;;;;;;;25.80;13.57;;;4.50;99.90;;;-143.32;71.70;55630.91;5014615;28;20457;-93
2021/04/08 20:43:34;;;;;;;24.13;13.43;;;4.50;99.90;;;-143.32;71.00;55624.84;5014600;28;20478;-93
2021/04/08 20:46:09;;;;;;;28.50;11.73;;;4.50;99.90;;;-143.32;71.15;55649.09;5013896;28;20449;-93
2021/04/08 20:49:12;;;;;;;;;;;;;;;;;;;;;
2021/04/08 20:51:44;;;;;;;21.67;12.30;;;4.50;99.90;;;-143.32;70.89;55665.25;5025823;28;20518;-92
2021/04/08 20:54:11;;;;;;;23.43;12.93;;;4.50;99.90;;;-143.32;71.07;55636.97;5026260;28;20438;-92
2021/04/08 20:56:38;;;;;;;26.97;12.90;;;4.50;99.90;;;-143.32;71.52;55653.13;5029470;28;20450;-93
2021/04/08 20:59:09;;;;;;;24.50;12.57;;;4.50;99.90;;;-143.32;70.81;55643.03;5039001;28;20461;-92
2021/04/08 21:02:05;;;;;;;19.67;11.07;;;4.50;99.90;;;-143.32;71.23;55639.00;5037345;28;20477;-93
2021/04/08 21:04:34;;;;;;;18.90;10.63;;;4.50;99.90;;;-143.32;71.69;55655.16;4996243;28;20458;-93
2021/04/08 21:07:03;;;;;;;20.53;11.70;;;4.50;99.90;;;-143.32;71.36;55647.06;5020432;28;20450;-92
2021/04/08 21:09:30;;;;;;;20.60;11.80;;;4.50;99.90;;;-143.32;71.84;55632.94;5019161;28;20457;-92
2021/04/08 21:12:02;;;;;;;21.20;10.67;;;4.50;99.90;;;-143.32;72.09;55651.13;5019628;28;20438;-93
2021/04/08 21:14:30;;;;;;;25.13;11.70;;;4.40;99.90;;;-143.32;72.42;55651.13;5018097;28;20453;-93